CST,Max TemperatureF,Mean TemperatureF,Min TemperatureF,Max Dew PointF,MeanDew PointF,Min DewpointF,Max Humidity, Mean Humidity, Min Humidity, Max Sea Level PressureIn, Mean Sea Level PressureIn, Min Sea Level PressureIn, Max VisibilityMiles, Mean VisibilityMiles, Min VisibilityMiles, Max Wind SpeedMPH, Mean Wind SpeedMPH, Max Gust SpeedMPH,PrecipitationIn, CloudCover, Events, WindDirDegrees
2013-2-1,30,24,17,10,5,0,51,44,34,30.58,30.45,30.33,10,10,10,15,8,23,0.00,0,,350
2013-2-2,46,36,26,27,21,10,60,52,42,30.32,30.21,30.14,10,10,10,17,5,22,0.00,3,,231
2013-2-3,50,42,33,27,24,18,65,49,36,30.19,30.15,30.07,10,10,10,18,9,25,0.00,1,,281
2013-2-4,51,43,35,36,29,19,70,56,38,30.12,29.98,29.92,10,10,10,15,7,23,0.07,5,,193
2013-2-5,51,43,35,41,33,28,81,73,62,30.09,30.01,29.94,10,4,0,8,1,,0.00,4,,281
2013-2-6,57,46,35,32,30,27,81,55,38,30.25,30.16,30.08,10,9,0,12,6,17,0.00,1,,69
2013-2-7,64,54,44,48,39,27,77,57,49,30.08,29.96,29.89,10,10,5,10,5,,0.01,4,,194
2013-2-8,53,43,33,46,30,21,77,64,56,30.37,30.22,29.94,10,9,5,18,12,25,0.04,7,,8
2013-2-9,48,40,33,30,25,21,65,54,46,30.38,30.25,30.07,10,10,10,12,8,18,0.00,4,,100
2013-2-10,57,52,46,48,41,32,77,65,47,30.07,29.89,29.74,10,10,5,24,11,34,0.49,5,Thunderstorm,168
2013-2-11,55,47,39,45,29,25,67,50,40,30.20,30.13,29.95,10,10,9,14,8,20,0.00,0,,257
2013-2-12,48,40,33,32,29,25,75,58,46,30.17,30.04,29.84,10,10,9,12,4,16,0.00,4,,56
2013-2-13,44,40,37,32,30,28,75,66,57,30.01,29.94,29.82,10,9,4,14,8,18,0.20,6,,303
2013-2-14,60,48,35,37,32,27,70,56,42,30.06,30.02,29.98,10,10,10,15,7,20,0.00,0,,228
2013-2-15,50,40,30,30,25,12,61,50,39,30.24,30.18,30.07,10,10,10,16,6,21,0.00,3,,351
2013-2-16,37,32,26,18,13,10,64,48,35,30.28,30.25,30.22,10,10,10,15,5,21,0.00,2,,317
2013-2-17,51,40,28,25,19,10,60,43,32,30.27,30.19,30.08,10,10,10,14,4,17,0.00,4,,165
2013-2-18,57,50,42,43,35,23,76,58,44,30.07,29.94,29.76,10,10,6,23,12,37,0.78,5,Thunderstorm,182
2013-2-19,46,40,33,34,21,12,66,47,32,30.30,30.18,29.96,10,10,10,17,11,26,0.67,1,,294
2013-2-20,33,30,26,14,11,7,51,44,40,30.41,30.31,30.24,10,10,10,16,7,18,0.00,3,,39
2013-2-21,39,34,28,32,22,14,75,61,48,30.26,30.01,29.80,10,8,1,16,11,25,1.50,8,Thunderstorm,78
2013-2-22,42,38,33,34,29,21,81,69,60,30.10,30.03,29.87,10,9,2,13,7,18,0.10,6,,260
2013-2-23,44,36,28,27,22,18,74,59,46,30.09,30.04,29.99,10,10,10,9,5,,0.00,0,,333
2013-2-24,51,38,26,27,23,18,74,52,38,30.16,30.06,29.98,10,10,7,12,5,18,0.00,0,,69
2013-2-25,60,48,37,43,29,19,71,46,29,29.98,29.75,29.37,10,10,6,16,10,26,0.44,4,Thunderstorm,84
2013-2-26,51,45,39,45,34,27,76,65,57,29.79,29.51,29.34,10,10,5,22,12,30,0.05,8,,225
2013-2-27,42,38,35,28,25,21,65,58,52,29.97,29.90,29.79,10,10,10,18,12,24,0.00,8,,264
2013-2-28,39,36,33,25,23,19,70,57,52,30.13,30.06,29.96,10,10,10,13,9,18,0.00,8,,306